createdAt,value
2019-01-05T00:00:14.901Z,29.6
2019-01-05T00:01:03.686Z,29.6
2019-01-05T00:01:54.306Z,29.7
2019-01-05T00:02:45.188Z,29.8
2019-01-05T00:03:34.410Z,29.8
2019-01-05T00:04:24.667Z,29.9
2019-01-05T00:05:14.827Z,29.9
2019-01-05T00:06:05.063Z,29.9
2019-01-05T00:06:55.386Z,29.8
2019-01-05T00:07:45.483Z,29.8
2019-01-05T00:08:35.233Z,29.8
2019-01-05T00:09:25.033Z,29.9
2019-01-05T00:10:15.296Z,30
2019-01-05T00:11:04.905Z,30
2019-01-05T00:11:56.337Z,30.1
2019-01-05T00:12:45.256Z,30.1
2019-01-05T00:13:35.898Z,30
2019-01-05T00:14:24.606Z,29.9
2019-01-05T00:15:17.372Z,29.9
2019-01-05T00:33:29.437Z,30.4
2019-01-05T00:34:19.756Z,30.5
2019-01-05T00:35:08.649Z,30.5
2019-01-05T00:35:58.194Z,30.5
2019-01-05T00:36:48.267Z,30.4
2019-01-05T00:37:39.199Z,30.4
2019-01-05T00:38:29.501Z,30.4
2019-01-05T00:39:18.784Z,30.4
2019-01-05T00:40:09.686Z,30.5
2019-01-05T00:40:59.399Z,30.6
2019-01-05T00:41:48.346Z,30.6
2019-01-05T00:42:39.823Z,30.6
2019-01-05T00:43:29.331Z,30.6
2019-01-05T00:44:18.799Z,30.6
2019-01-05T00:45:09.692Z,30.5
2019-01-05T00:46:00.263Z,30.5
2019-01-05T00:46:49.521Z,30.6
2019-01-05T00:47:39.871Z,30.6
2019-01-05T00:48:30.488Z,30.6
2019-01-05T00:49:19.420Z,30.7
2019-01-05T00:50:09.216Z,30.7
2019-01-05T00:51:00.166Z,30.7
2019-01-05T00:51:50.726Z,30.6
2019-01-05T00:52:39.668Z,30.6
2019-01-05T00:53:29.433Z,30.6
2019-01-05T00:54:20.583Z,30.6
2019-01-05T00:55:10.450Z,30.7
2019-01-05T00:56:00.747Z,30.8
2019-01-05T00:56:51.035Z,30.8
2019-01-05T00:57:40.805Z,30.8
2019-01-05T00:58:30.023Z,30.8
2019-01-05T00:59:21.277Z,30.8
2019-01-05T01:00:11.005Z,30.8
2019-01-05T01:01:00.805Z,30.8
2019-01-05T01:01:51.118Z,30.8
2019-01-05T01:02:41.488Z,30.9
2019-01-05T01:03:29.547Z,30.9
2019-01-05T01:04:21.227Z,30.9
2019-01-05T01:05:10.239Z,31
2019-01-05T01:06:01.389Z,31
2019-01-05T01:06:51.708Z,31
2019-01-05T01:07:40.905Z,30.9
2019-01-05T01:08:31.330Z,30.9
2019-01-05T01:09:36.987Z,30.9
2019-01-05T01:10:11.995Z,30.8
2019-01-05T01:11:02.022Z,30.8
2019-01-05T01:11:51.445Z,30.9
2019-01-05T01:12:40.757Z,31
2019-01-05T01:13:31.357Z,31.1
2019-01-05T01:14:21.979Z,31.1
2019-01-05T01:15:11.479Z,31.1
2019-01-05T01:16:02.411Z,31.1
2019-01-05T01:16:50.467Z,31.1
2019-01-05T01:17:41.377Z,31.1
2019-01-05T01:18:32.824Z,31.1
2019-01-05T01:19:22.573Z,31
2019-01-05T01:20:12.451Z,30.9
2019-01-05T01:21:02.705Z,30.9
2019-01-05T01:21:52.686Z,31
2019-01-05T01:22:43.294Z,31.1
2019-01-05T01:23:32.303Z,31.1
2019-01-05T01:24:21.279Z,31.2
2019-01-05T01:25:12.976Z,31.3
2019-01-05T01:26:01.864Z,31.3
2019-01-05T01:26:52.468Z,31.3
2019-01-05T01:27:43.123Z,31.3
2019-01-05T01:28:31.911Z,31.2
2019-01-05T01:29:22.733Z,31.2
2019-01-05T01:30:13.946Z,31.1
2019-01-05T01:31:03.590Z,31.1
2019-01-05T01:31:53.710Z,31.1
2019-01-05T01:32:43.306Z,31.1
2019-01-05T01:33:33.227Z,31.2
2019-01-05T01:34:23.576Z,31.3
2019-01-05T01:35:13.438Z,31.3
2019-01-05T01:36:03.661Z,31.4
2019-01-05T01:36:53.400Z,31.4
2019-01-05T01:37:43.204Z,31.4
2019-01-05T01:38:33.281Z,31.4
2019-01-05T01:39:23.303Z,31.4
2019-01-05T01:40:13.668Z,31.3
2019-01-05T01:41:04.235Z,31.3
2019-01-05T01:41:54.343Z,31.2
2019-01-05T01:42:43.595Z,31.1
2019-01-05T01:43:34.420Z,31.2
2019-01-05T01:44:23.745Z,31.3
2019-01-05T01:45:12.907Z,31.4
2019-01-05T01:46:04.390Z,31.4
2019-01-05T01:46:53.812Z,31.4
2019-01-05T01:47:43.385Z,31.5
2019-01-05T01:48:35.010Z,31.5
2019-01-05T01:49:24.826Z,31.5
2019-01-05T01:50:15.407Z,31.5
2019-01-05T01:51:04.239Z,31.4
2019-01-05T01:51:54.193Z,31.4
2019-01-05T01:52:45.396Z,31.3
2019-01-05T01:53:35.917Z,31.3
2019-01-05T01:54:25.442Z,31.4
2019-01-05T01:55:14.719Z,31.4
2019-01-05T01:56:04.681Z,31.5
2019-01-05T01:56:54.499Z,31.6
2019-01-05T01:57:44.337Z,31.6
2019-01-05T01:58:35.492Z,31.6
2019-01-05T01:59:25.234Z,31.6
2019-01-05T02:00:15.280Z,31.6
2019-01-05T02:01:05.696Z,31.6
2019-01-05T02:01:54.354Z,31.6
2019-01-05T02:02:45.441Z,31.5
2019-01-05T02:03:35.826Z,31.4
2019-01-05T02:04:24.451Z,31.4
2019-01-05T02:05:15.370Z,31.4
2019-01-05T02:06:05.939Z,31.4
2019-01-05T02:06:56.056Z,31.5
2019-01-05T02:07:45.545Z,31.6
2019-01-05T02:08:36.741Z,31.6
2019-01-05T02:09:26.234Z,31.6
2019-01-05T02:10:16.032Z,31.6
2019-01-05T02:11:06.601Z,31.6
2019-01-05T02:11:56.351Z,31.6
2019-01-05T02:12:46.122Z,31.6
2019-01-05T02:13:37.107Z,31.6
2019-01-05T02:14:25.186Z,31.6
2019-01-05T02:15:16.617Z,31.5
2019-01-05T02:16:06.664Z,31.5
2019-01-05T02:16:56.713Z,31.5
2019-01-05T02:17:46.749Z,31.6
2019-01-05T02:18:38.374Z,31.6
2019-01-05T02:19:25.773Z,31.6
2019-01-05T02:20:16.703Z,31.7
2019-01-05T02:21:05.936Z,31.7
2019-01-05T02:21:56.723Z,31.7
2019-01-05T02:22:47.077Z,31.7
2019-01-05T02:23:36.900Z,31.7
2019-01-05T02:24:27.485Z,31.6
2019-01-05T02:25:16.730Z,31.6
2019-01-05T02:26:06.834Z,31.6
2019-01-05T02:26:57.207Z,31.6
2019-01-05T02:27:47.750Z,31.6
2019-01-05T02:28:36.962Z,31.7
2019-01-05T02:29:26.715Z,31.8
2019-01-05T02:30:17.559Z,31.8
2019-01-05T02:31:07.341Z,31.8
2019-01-05T02:31:57.118Z,31.8
2019-01-05T02:32:47.570Z,31.8
2019-01-05T02:33:38.142Z,31.8
2019-01-05T02:34:28.230Z,31.8
2019-01-05T02:35:17.819Z,31.8
2019-01-05T02:36:07.065Z,31.7
2019-01-05T02:36:57.087Z,31.6
2019-01-05T02:37:48.004Z,31.7
2019-01-05T02:38:36.914Z,31.8
2019-01-05T02:39:28.179Z,31.8
2019-01-05T02:40:17.838Z,31.8
2019-01-05T02:41:08.214Z,31.9
2019-01-05T02:41:58.587Z,31.9
2019-01-05T02:42:49.349Z,31.9
2019-01-05T02:43:38.322Z,31.9
2019-01-05T02:44:27.515Z,31.9
2019-01-05T02:45:18.737Z,31.9
2019-01-05T02:46:08.271Z,31.8
2019-01-05T02:46:58.746Z,31.8
2019-01-05T02:47:48.394Z,31.7
2019-01-05T02:48:38.072Z,31.8
2019-01-05T02:49:29.584Z,31.8
2019-01-05T02:50:18.511Z,31.8
2019-01-05T02:51:08.206Z,31.9
2019-01-05T02:52:00.553Z,31.9
2019-01-05T02:52:49.236Z,32
2019-01-05T02:53:39.529Z,32
2019-01-05T02:54:28.739Z,32
2019-01-05T02:55:18.757Z,31.9
2019-01-05T02:56:08.808Z,31.9
2019-01-05T02:56:59.166Z,31.9
2019-01-05T02:57:49.926Z,31.8
2019-01-05T02:58:39.281Z,31.8
2019-01-05T02:59:29.293Z,31.9
2019-01-05T03:00:19.128Z,31.9
2019-01-05T03:01:10.068Z,32
2019-01-05T03:01:58.658Z,32
2019-01-05T03:02:49.640Z,32.1
2019-01-05T03:03:39.753Z,32.1
2019-01-05T03:04:29.686Z,32.1
2019-01-05T03:05:19.510Z,32.1
2019-01-05T03:06:10.034Z,32.1
2019-01-05T03:06:59.058Z,32
2019-01-05T03:07:50.606Z,32
2019-01-05T03:08:40.268Z,31.9
2019-01-05T03:09:30.636Z,31.9
2019-01-05T03:10:19.835Z,31.9
2019-01-05T03:11:08.459Z,32
2019-01-05T03:12:00.492Z,32
2019-01-05T03:12:51.095Z,32.1
2019-01-05T03:13:40.080Z,32.1
2019-01-05T03:14:31.007Z,32.1
2019-01-05T03:15:20.995Z,32.1
2019-01-05T03:16:10.482Z,32.1
2019-01-05T03:16:59.479Z,32.1
2019-01-05T03:17:51.208Z,32.1
2019-01-05T03:18:41.563Z,32.1
2019-01-05T03:19:30.804Z,31.9
2019-01-05T03:20:20.810Z,31.9
2019-01-05T03:21:11.424Z,32
2019-01-05T03:22:00.877Z,32.1
2019-01-05T03:22:51.206Z,32.1
2019-01-05T03:23:41.386Z,32.1
2019-01-05T03:24:30.217Z,32.1
2019-01-05T03:25:20.607Z,32.2
2019-01-05T03:26:10.341Z,32.2
2019-01-05T03:27:01.226Z,32.2
2019-01-05T03:27:51.352Z,32.1
2019-01-05T03:28:41.608Z,32.1
2019-01-05T03:29:30.579Z,32.1
2019-01-05T03:30:22.173Z,32.1
2019-01-05T03:31:12.658Z,32
2019-01-05T03:32:00.961Z,32.1
2019-01-05T03:32:52.258Z,32.1
2019-01-05T03:33:41.759Z,32.1
2019-01-05T03:34:32.003Z,32.2
2019-01-05T03:35:21.802Z,32.2
2019-01-05T03:36:11.844Z,32.3
2019-01-05T03:37:01.406Z,32.3
2019-01-05T03:37:51.979Z,32.3
2019-01-05T03:38:41.828Z,32.2
2019-01-05T03:39:31.060Z,32.2
2019-01-05T03:40:23.473Z,32.1
2019-01-05T03:41:11.967Z,32.1
2019-01-05T03:42:02.537Z,32.1
2019-01-05T03:42:52.937Z,32.1
2019-01-05T03:43:42.092Z,32.2
2019-01-05T03:44:32.443Z,32.3
2019-01-05T03:45:22.478Z,32.3
2019-01-05T03:46:12.066Z,32.3
2019-01-05T03:47:02.623Z,32.3
2019-01-05T03:47:51.773Z,32.3
2019-01-05T03:48:43.553Z,32.3
2019-01-05T03:49:32.514Z,32.4
2019-01-05T03:50:23.649Z,32.4
2019-01-05T03:51:13.366Z,32.4
2019-01-05T03:52:01.833Z,32.3
2019-01-05T03:52:52.687Z,32.3
2019-01-05T03:53:42.471Z,32.3
2019-01-05T03:54:33.340Z,32.3
2019-01-05T03:55:23.995Z,32.3
2019-01-05T03:56:12.894Z,32.3
2019-01-05T03:57:03.239Z,32.3
2019-01-05T03:57:53.368Z,32.3
2019-01-05T03:58:42.789Z,32.3
2019-01-05T03:59:33.939Z,32.3
2019-01-05T04:00:23.265Z,32.3
2019-01-05T04:01:14.087Z,32.3
2019-01-05T04:02:03.868Z,32.3
2019-01-05T04:02:53.459Z,32.3
2019-01-05T04:03:44.201Z,32.3
2019-01-05T04:04:34.900Z,32.3
2019-01-05T04:05:23.586Z,32.3
2019-01-05T04:06:13.309Z,32.3
2019-01-05T04:07:03.959Z,32.3
2019-01-05T04:07:53.767Z,32.3
2019-01-05T04:08:44.070Z,32.3
2019-01-05T04:09:34.199Z,32.3
2019-01-05T04:10:23.624Z,32.3
2019-01-05T04:11:13.351Z,32.4
2019-01-05T04:12:05.099Z,32.4
2019-01-05T04:12:53.776Z,32.4
2019-01-05T04:13:44.904Z,32.4
2019-01-05T04:14:34.143Z,32.4
2019-01-05T04:15:25.301Z,32.4
2019-01-05T04:16:14.804Z,32.4
2019-01-05T04:17:04.679Z,32.4
2019-01-05T04:17:54.981Z,32.4
2019-01-05T04:18:44.436Z,32.4
2019-01-05T04:19:35.621Z,32.4
2019-01-05T04:20:23.423Z,32.4
2019-01-05T04:21:14.336Z,32.4
2019-01-05T04:22:05.004Z,32.4
2019-01-05T04:22:55.519Z,32.4
2019-01-05T04:23:44.766Z,32.4
2019-01-05T04:24:50.330Z,32.4
2019-01-05T04:25:26.462Z,32.4
2019-01-05T04:26:14.690Z,32.4
2019-01-05T04:27:05.849Z,32.4
2019-01-05T04:27:55.606Z,32.4
2019-01-05T04:28:44.854Z,32.4
2019-01-05T04:29:35.761Z,32.4
2019-01-05T04:30:27.398Z,32.4
2019-01-05T04:31:16.136Z,32.4
2019-01-05T04:32:03.992Z,32.5
2019-01-05T04:32:55.970Z,32.5
2019-01-05T04:33:45.180Z,32.5
2019-01-05T04:34:35.859Z,32.5
2019-01-05T04:35:25.567Z,32.5
2019-01-05T04:36:15.710Z,32.5
2019-01-05T04:37:05.975Z,32.5
2019-01-05T04:37:56.117Z,32.5
2019-01-05T04:38:46.052Z,32.5
2019-01-05T04:39:36.428Z,32.5
2019-01-05T04:40:26.979Z,32.5
2019-01-05T04:41:16.102Z,32.6
2019-01-05T04:42:07.198Z,32.6
2019-01-05T04:42:55.250Z,32.6
2019-01-05T04:43:46.468Z,32.6
2019-01-05T04:44:36.284Z,32.6
2019-01-05T04:45:27.851Z,32.6
2019-01-05T05:02:47.967Z,32.6
2019-01-05T05:03:36.068Z,32.6
2019-01-05T05:04:26.127Z,32.6
2019-01-05T05:05:16.711Z,32.6
2019-01-05T05:06:06.425Z,32.6
2019-01-05T05:06:56.022Z,32.7
2019-01-05T05:07:47.592Z,32.7
2019-01-05T05:08:36.945Z,32.6
2019-01-05T05:09:25.065Z,32.7
2019-01-05T05:10:16.805Z,32.6
2019-01-05T05:11:05.893Z,32.6
2019-01-05T05:11:55.786Z,32.6
2019-01-05T05:12:47.593Z,32.6
2019-01-05T05:13:36.083Z,32.6
2019-01-05T05:14:26.280Z,32.6
2019-01-05T05:15:16.845Z,32.6
2019-01-05T05:16:07.477Z,32.5
2019-01-05T05:16:56.755Z,32.5
2019-01-05T05:17:47.775Z,32.4
2019-01-05T05:18:37.892Z,32.4
2019-01-05T05:19:26.239Z,32.4
2019-01-05T05:20:18.062Z,32.4
2019-01-05T05:21:06.452Z,32.5
2019-01-05T05:21:56.835Z,32.5
2019-01-05T05:22:47.174Z,32.4
2019-01-05T05:23:37.192Z,32.4
2019-01-05T05:24:27.482Z,32.3
2019-01-05T05:25:18.313Z,32.2
2019-01-05T05:26:07.044Z,32.1
2019-01-05T05:26:56.832Z,32
2019-01-05T05:27:47.529Z,31.8
2019-01-05T05:28:38.647Z,31.7
2019-01-05T05:29:27.167Z,31.6
2019-01-05T05:30:18.172Z,31.4
2019-01-05T05:31:07.984Z,31.3
2019-01-05T05:31:58.479Z,31.1
2019-01-05T05:32:48.133Z,31
2019-01-05T05:33:38.019Z,30.8
2019-01-05T05:34:28.657Z,30.8
2019-01-05T05:35:18.116Z,30.6
2019-01-05T05:36:07.914Z,30.5
2019-01-05T05:36:57.734Z,30.4
2019-01-05T05:37:48.316Z,30.3
2019-01-05T05:38:38.368Z,30.2
2019-01-05T05:39:28.429Z,30.1
2019-01-05T05:40:18.291Z,30
2019-01-05T05:41:08.079Z,29.9
2019-01-05T05:41:58.522Z,29.8
2019-01-05T05:42:48.325Z,29.8
2019-01-05T05:43:40.044Z,29.8
2019-01-05T05:44:29.668Z,29.6
2019-01-05T05:45:19.175Z,29.6
2019-01-05T05:46:09.145Z,29.5
2019-01-05T05:46:58.498Z,29.4
2019-01-05T05:47:49.252Z,29.4
2019-01-05T05:48:39.032Z,29.3
2019-01-05T05:49:29.995Z,29.3
2019-01-05T05:50:18.608Z,29.2
2019-01-05T05:51:09.233Z,29.2
2019-01-05T05:51:59.935Z,29.2
2019-01-05T05:52:50.260Z,29.1
2019-01-05T05:53:39.681Z,29
2019-01-05T05:54:28.166Z,29
2019-01-05T05:55:19.548Z,28.9
2019-01-05T05:56:09.007Z,28.8
2019-01-05T05:57:00.380Z,28.8
2019-01-05T05:57:49.145Z,28.8
2019-01-05T05:58:39.795Z,28.7
2019-01-05T05:59:29.870Z,28.7
2019-01-05T06:00:19.294Z,28.6
2019-01-05T06:01:10.452Z,28.6
2019-01-05T06:01:59.217Z,28.6
2019-01-05T06:02:49.699Z,28.5
2019-01-05T06:03:40.894Z,28.4
2019-01-05T06:04:30.982Z,28.4
2019-01-05T06:05:19.897Z,28.4
2019-01-05T06:06:10.510Z,28.3
2019-01-05T06:06:59.177Z,28.3
2019-01-05T06:07:49.486Z,28.3
2019-01-05T06:08:40.627Z,28.3
2019-01-05T06:09:30.534Z,28.2
2019-01-05T06:10:21.097Z,28.2
2019-01-05T06:11:11.186Z,28.1
2019-01-05T06:12:00.931Z,28.1
2019-01-05T06:12:50.646Z,28.1
2019-01-05T06:13:40.761Z,28
2019-01-05T06:14:31.603Z,28
2019-01-05T06:15:21.731Z,27.9
2019-01-05T06:16:10.604Z,27.9
2019-01-05T06:16:59.389Z,27.9
2019-01-05T06:19:31.966Z,27.8
2019-01-05T06:20:20.091Z,27.8
2019-01-05T06:21:11.513Z,27.7
2019-01-05T06:22:00.776Z,27.7
2019-01-05T06:22:51.581Z,27.6
2019-01-05T06:23:41.627Z,27.6
2019-01-05T06:24:31.795Z,27.6
2019-01-05T06:25:22.132Z,27.6
2019-01-05T06:26:12.153Z,27.6
2019-01-05T06:27:01.613Z,27.5
2019-01-05T06:27:51.184Z,27.5
2019-01-05T06:28:42.792Z,27.4
2019-01-05T06:29:31.565Z,27.4
2019-01-05T06:30:21.564Z,27.4
2019-01-05T06:31:11.919Z,27.4
2019-01-05T06:32:00.842Z,27.4
2019-01-05T06:32:51.215Z,27.3
2019-01-05T06:33:42.222Z,27.3
2019-01-05T06:34:32.793Z,27.3
2019-01-05T06:35:22.053Z,27.3
2019-01-05T06:36:12.054Z,27.3
2019-01-05T06:37:02.630Z,27.2
2019-01-05T06:37:51.806Z,27.2
2019-01-05T06:38:42.994Z,27.2
2019-01-05T06:39:31.971Z,27.1
2019-01-05T06:40:23.099Z,27.1
2019-01-05T06:41:13.146Z,27.1
2019-01-05T06:42:02.383Z,27
2019-01-05T06:42:52.726Z,27
2019-01-05T06:43:42.756Z,27
2019-01-05T06:44:34.436Z,26.9
2019-01-05T06:45:23.968Z,26.9
2019-01-05T06:46:12.468Z,26.9
2019-01-05T06:47:02.523Z,26.9
2019-01-05T06:47:53.318Z,26.9
2019-01-05T06:48:43.708Z,26.8
2019-01-05T06:49:33.668Z,26.8
2019-01-05T06:50:23.185Z,26.8
2019-01-05T06:51:14.178Z,26.8
2019-01-05T06:52:03.902Z,26.8
2019-01-05T06:52:52.003Z,26.7
2019-01-05T06:53:43.682Z,26.7
2019-01-05T06:54:33.528Z,26.7
2019-01-05T06:55:24.350Z,26.7
2019-01-05T06:56:13.317Z,26.6
2019-01-05T06:57:04.478Z,26.6
2019-01-05T06:57:53.745Z,26.6
2019-01-05T06:58:43.790Z,26.6
2019-01-05T06:59:33.331Z,26.5
2019-01-05T07:00:23.272Z,26.6
2019-01-05T07:01:13.187Z,26.5
2019-01-05T07:02:02.950Z,26.4
2019-01-05T07:02:54.110Z,26.4
2019-01-05T07:03:43.937Z,26.4
2019-01-05T07:04:33.962Z,26.4
2019-01-05T07:05:23.710Z,26.4
2019-01-05T07:06:12.607Z,26.4
2019-01-05T07:07:03.594Z,26.3
2019-01-05T07:07:54.404Z,26.4
2019-01-05T07:08:44.212Z,26.3
2019-01-05T07:09:34.795Z,26.3
2019-01-05T07:10:25.122Z,26.3
2019-01-05T07:11:15.337Z,26.3
2019-01-05T07:12:04.707Z,26.3
2019-01-05T07:12:54.734Z,26.2
2019-01-05T07:13:45.140Z,26.2
2019-01-05T07:14:35.751Z,26.2
2019-01-05T07:15:25.472Z,26.1
2019-01-05T07:16:14.712Z,26.1
2019-01-05T07:17:06.172Z,26.1
2019-01-05T07:17:55.049Z,26.1
2019-01-05T07:18:45.142Z,26.1
2019-01-05T07:19:35.481Z,26.1
2019-01-05T07:20:25.704Z,26
2019-01-05T07:21:14.796Z,26
2019-01-05T07:22:04.116Z,26
2019-01-05T07:22:56.158Z,26
2019-01-05T07:23:45.734Z,25.9
2019-01-05T07:24:36.633Z,25.9
2019-01-05T07:25:25.596Z,25.9
2019-01-05T07:26:16.183Z,25.9
2019-01-05T07:27:06.528Z,25.9
2019-01-05T07:27:56.302Z,25.9
2019-01-05T07:28:46.063Z,25.9
2019-01-05T07:29:35.290Z,25.8
2019-01-05T07:30:26.478Z,25.9
2019-01-05T07:31:15.988Z,25.8
2019-01-05T07:32:06.046Z,25.8
2019-01-05T07:32:56.675Z,25.8
2019-01-05T07:33:46.133Z,25.8
2019-01-05T07:34:35.935Z,25.8
2019-01-05T07:35:26.808Z,25.8
2019-01-05T07:36:16.298Z,25.8
2019-01-05T07:37:06.076Z,25.8
2019-01-05T07:37:56.430Z,25.7
2019-01-05T07:38:46.240Z,25.7
2019-01-05T07:39:36.382Z,25.7
2019-01-05T07:40:26.050Z,25.7
2019-01-05T07:41:16.577Z,25.6
2019-01-05T07:42:06.665Z,25.6
2019-01-05T07:42:56.224Z,25.6
2019-01-05T07:43:46.933Z,25.6
2019-01-05T07:44:37.415Z,25.6
2019-01-05T07:45:26.980Z,25.6
2019-01-05T07:46:16.510Z,25.6
2019-01-05T07:47:07.092Z,25.5
2019-01-05T07:47:56.588Z,25.4
2019-01-05T07:48:48.030Z,25.5
2019-01-05T07:49:37.257Z,25.5
2019-01-05T07:50:27.849Z,25.4
2019-01-05T07:51:17.097Z,25.4
2019-01-05T07:52:07.752Z,25.4
2019-01-05T07:52:57.442Z,25.4
2019-01-05T07:53:48.354Z,25.4
2019-01-05T07:54:38.384Z,25.4
2019-01-05T07:55:28.266Z,25.4
2019-01-05T07:56:18.186Z,25.3
2019-01-05T07:57:07.786Z,25.3
2019-01-05T07:57:57.816Z,25.3
2019-01-05T07:58:47.851Z,25.3
2019-01-05T07:59:38.729Z,25.3
2019-01-05T08:00:29.049Z,25.3
2019-01-05T08:01:17.746Z,25.3
2019-01-05T08:02:08.421Z,25.3
2019-01-05T08:02:58.443Z,25.2
2019-01-05T08:03:48.473Z,25.2
2019-01-05T08:04:37.221Z,25.2
2019-01-05T08:05:28.394Z,25.2
2019-01-05T08:06:18.711Z,25.2
2019-01-05T08:07:08.988Z,25.1
2019-01-05T08:07:58.916Z,25.1
2019-01-05T08:08:48.063Z,25.1
2019-01-05T08:09:38.664Z,25.1
2019-01-05T08:10:28.693Z,25.1
2019-01-05T08:11:17.625Z,25
2019-01-05T08:12:08.273Z,25
2019-01-05T08:12:59.711Z,25
2019-01-05T08:13:48.637Z,24.9
2019-01-05T08:14:38.393Z,24.9
2019-01-05T08:15:29.610Z,24.9
2019-01-05T08:16:19.613Z,24.9
2019-01-05T08:17:09.383Z,24.9
2019-01-05T08:17:58.889Z,24.9
2019-01-05T08:18:49.570Z,24.9
2019-01-05T08:19:38.986Z,24.9
2019-01-05T08:20:29.377Z,24.8
2019-01-05T08:21:18.558Z,24.9
2019-01-05T08:22:09.987Z,24.8
2019-01-05T08:22:59.672Z,24.8
2019-01-05T08:23:49.570Z,24.8
2019-01-05T08:24:39.900Z,24.8
2019-01-05T08:25:29.162Z,24.8
2019-01-05T08:26:19.297Z,24.8
2019-01-05T08:27:09.853Z,24.8
2019-01-05T08:27:59.322Z,24.8
2019-01-05T08:28:50.502Z,24.8
2019-01-05T08:29:40.294Z,24.7
2019-01-05T08:30:30.068Z,24.7
2019-01-05T08:31:19.813Z,24.7
2019-01-05T08:32:10.735Z,24.6
2019-01-05T08:32:59.334Z,24.7
2019-01-05T08:33:51.339Z,24.6
2019-01-05T08:34:39.222Z,24.6
2019-01-05T08:35:30.817Z,24.6
2019-01-05T08:36:19.437Z,24.6
2019-01-05T08:37:09.132Z,24.6
2019-01-05T08:38:00.321Z,24.6
2019-01-05T08:38:50.293Z,24.6
2019-01-05T08:39:41.316Z,24.6
2019-01-05T08:40:30.754Z,24.5
2019-01-05T08:41:19.969Z,24.5
2019-01-05T08:42:11.769Z,24.5
2019-01-05T08:42:59.961Z,24.5
2019-01-05T08:43:50.231Z,24.5
2019-01-05T08:44:40.194Z,24.5
2019-01-05T08:45:30.556Z,24.4
2019-01-05T08:46:21.121Z,24.4
2019-01-05T08:47:10.958Z,24.4
2019-01-05T08:48:00.491Z,24.4
2019-01-05T08:48:51.081Z,24.4
2019-01-05T08:49:40.588Z,24.4
2019-01-05T08:50:31.480Z,24.4
2019-01-05T08:51:21.753Z,24.4
2019-01-05T08:52:11.268Z,24.4
2019-01-05T08:53:01.401Z,24.4
2019-01-05T08:53:51.351Z,24.3
2019-01-05T08:54:40.690Z,24.3
2019-01-05T08:55:30.104Z,24.3
2019-01-05T08:56:21.588Z,24.3
2019-01-05T08:57:10.746Z,24.3
2019-01-05T08:58:00.878Z,24.3
2019-01-05T08:58:51.743Z,24.3
2019-01-05T08:59:42.564Z,24.3
2019-01-05T09:00:32.675Z,24.3
2019-01-05T09:01:21.273Z,24.3
2019-01-05T09:17:13.447Z,23.9
2019-01-05T09:18:03.469Z,24
2019-01-05T09:18:52.502Z,23.9
2019-01-05T09:19:43.279Z,24
2019-01-05T09:20:33.639Z,24
2019-01-05T09:21:23.397Z,24
2019-01-05T09:22:13.664Z,23.9
2019-01-05T09:23:03.870Z,23.9
2019-01-05T09:23:53.356Z,23.9
2019-01-05T09:24:42.807Z,23.9
2019-01-05T09:25:33.686Z,23.9
2019-01-05T09:26:23.731Z,23.9
2019-01-05T09:27:13.536Z,23.9
2019-01-05T09:28:03.536Z,23.9
2019-01-05T09:28:53.684Z,23.9
2019-01-05T09:29:44.253Z,23.9
2019-01-05T09:30:32.644Z,23.9
2019-01-05T09:31:23.809Z,23.9
2019-01-05T09:32:13.326Z,24.3
2019-01-05T09:33:03.636Z,24.9
2019-01-05T09:33:54.248Z,25.4
2019-01-05T09:34:44.606Z,25.9
2019-01-05T09:35:33.563Z,26.3
2019-01-05T09:36:24.696Z,26.6
2019-01-05T09:37:14.345Z,26.8
2019-01-05T09:38:03.748Z,26.9
2019-01-05T09:38:54.615Z,27.1
2019-01-05T09:39:44.143Z,27.1
2019-01-05T09:40:34.021Z,27.1
2019-01-05T09:41:25.040Z,27.1
2019-01-05T09:42:14.701Z,27.1
2019-01-05T09:43:04.433Z,27.1
2019-01-05T09:43:55.475Z,26.9
2019-01-05T09:44:43.880Z,26.8
2019-01-05T09:45:35.368Z,26.9
2019-01-05T09:46:24.000Z,27.3
2019-01-05T09:47:15.108Z,27.5
2019-01-05T09:48:05.590Z,27.8
2019-01-05T09:48:55.260Z,27.9
2019-01-05T09:49:45.610Z,28
2019-01-05T09:50:33.737Z,28.1
2019-01-05T09:51:25.450Z,28.2
2019-01-05T09:52:15.805Z,28.2
2019-01-05T09:53:05.295Z,28.2
2019-01-05T09:53:55.625Z,28.2
2019-01-05T09:54:45.177Z,28.1
2019-01-05T09:55:34.932Z,28
2019-01-05T09:56:22.752Z,27.9
2019-01-05T09:57:15.250Z,28
2019-01-05T09:58:06.379Z,28.2
2019-01-05T09:58:55.124Z,28.3
2019-01-05T09:59:46.100Z,28.4
2019-01-05T10:00:35.787Z,28.6
2019-01-05T10:01:26.209Z,28.6
2019-01-05T10:02:15.404Z,28.6
2019-01-05T10:03:03.915Z,28.6
2019-01-05T10:03:56.124Z,28.6
2019-01-05T10:04:45.014Z,28.6
2019-01-05T10:05:36.756Z,28.6
2019-01-05T10:06:25.767Z,28.8
2019-01-05T10:07:16.831Z,28.9
2019-01-05T10:08:06.924Z,28.9
2019-01-05T10:08:56.139Z,28.9
2019-01-05T10:09:45.944Z,28.9
2019-01-05T10:10:35.964Z,28.9
2019-01-05T10:11:26.339Z,28.8
2019-01-05T10:12:16.338Z,28.8
2019-01-05T10:13:07.586Z,28.9
2019-01-05T10:13:57.021Z,29
2019-01-05T10:14:46.802Z,29.1
2019-01-05T10:15:37.188Z,29.1
2019-01-05T10:16:27.219Z,29.2
2019-01-05T10:17:16.726Z,29.2
2019-01-05T10:18:08.466Z,29.1
2019-01-05T10:18:55.700Z,29.1
2019-01-05T10:19:47.386Z,29.1
2019-01-05T10:20:36.645Z,29.3
2019-01-05T10:21:27.011Z,29.3
2019-01-05T10:22:17.357Z,29.4
2019-01-05T10:23:08.478Z,29.4
2019-01-05T10:23:58.263Z,29.4
2019-01-05T10:24:46.970Z,29.4
2019-01-05T10:25:36.966Z,29.3
2019-01-05T10:26:27.384Z,29.3
2019-01-05T10:27:16.830Z,29.3
2019-01-05T10:28:07.488Z,29.4
2019-01-05T10:28:57.529Z,29.5
2019-01-05T10:29:48.093Z,29.6
2019-01-05T10:30:37.623Z,29.6
2019-01-05T10:31:27.917Z,29.7
2019-01-05T10:32:17.672Z,29.7
2019-01-05T10:33:07.870Z,29.6
2019-01-05T10:33:58.407Z,29.6
2019-01-05T10:34:47.879Z,29.6
2019-01-05T10:35:38.238Z,29.6
2019-01-05T10:36:27.960Z,29.8
2019-01-05T10:37:17.772Z,29.8
2019-01-05T10:38:08.145Z,29.8
2019-01-05T10:38:58.672Z,29.9
2019-01-05T10:39:48.759Z,29.8
2019-01-05T10:40:37.715Z,29.8
2019-01-05T10:41:28.378Z,29.8
2019-01-05T10:42:18.516Z,29.8
2019-01-05T10:43:08.545Z,29.8
2019-01-05T10:43:58.829Z,29.9
2019-01-05T10:44:47.467Z,30
2019-01-05T10:45:39.165Z,30
2019-01-05T10:46:28.677Z,30.1
2019-01-05T10:47:18.702Z,30.1
2019-01-05T10:48:09.925Z,30.1
2019-01-05T10:48:59.689Z,30
2019-01-05T10:49:48.652Z,30
2019-01-05T10:50:38.449Z,29.9
2019-01-05T10:51:28.741Z,29.9
2019-01-05T10:52:17.709Z,30.1
2019-01-05T10:53:08.586Z,30.1
2019-01-05T10:53:59.231Z,30.1
2019-01-05T10:54:49.219Z,30.1
2019-01-05T10:55:39.584Z,30.2
2019-01-05T10:56:28.258Z,30.1
2019-01-05T10:57:20.111Z,30.1
2019-01-05T10:58:09.276Z,30.1
2019-01-05T10:59:00.357Z,30.1
2019-01-05T10:59:49.583Z,30.2
2019-01-05T11:00:39.369Z,30.3
2019-01-05T11:01:30.363Z,30.3
2019-01-05T11:02:20.133Z,30.3
2019-01-05T11:03:09.291Z,30.4
2019-01-05T11:04:01.676Z,30.3
2019-01-05T11:04:49.954Z,30.3
2019-01-05T11:05:39.522Z,30.3
2019-01-05T11:06:29.823Z,30.3
2019-01-05T11:07:20.374Z,30.3
2019-01-05T11:08:10.145Z,30.4
2019-01-05T11:09:00.828Z,30.4
2019-01-05T11:09:48.808Z,30.5
2019-01-05T11:10:40.327Z,30.5
2019-01-05T11:11:30.365Z,30.5
2019-01-05T11:12:20.983Z,30.5
2019-01-05T11:13:09.472Z,30.4
2019-01-05T11:14:01.354Z,30.4
2019-01-05T11:14:52.308Z,30.5
2019-01-05T11:15:40.635Z,30.6
2019-01-05T11:16:30.729Z,30.6
2019-01-05T11:17:21.471Z,30.6
2019-01-05T11:18:11.925Z,30.6
2019-01-05T11:19:03.085Z,30.6
2019-01-05T11:19:51.494Z,30.6
2019-01-05T11:20:45.325Z,30.6
2019-01-05T11:21:32.242Z,30.5
2019-01-05T11:22:21.801Z,30.5
2019-01-05T11:23:12.037Z,30.6
2019-01-05T11:24:02.432Z,30.6
2019-01-05T11:24:51.023Z,30.7
2019-01-05T11:25:41.699Z,30.8
2019-01-05T11:26:31.822Z,30.8
2019-01-05T11:27:21.766Z,30.7
2019-01-05T11:28:11.846Z,30.6
2019-01-05T11:29:01.964Z,30.6
2019-01-05T11:29:51.682Z,30.7
2019-01-05T11:30:41.164Z,30.8
2019-01-05T11:31:32.776Z,30.8
2019-01-05T11:32:23.608Z,30.9
2019-01-05T11:33:12.539Z,30.9
2019-01-05T11:34:03.129Z,30.9
2019-01-05T11:34:52.845Z,30.9
2019-01-05T11:35:42.349Z,30.8
2019-01-05T11:36:32.713Z,30.8
2019-01-05T11:37:21.916Z,30.8
2019-01-05T11:38:12.826Z,30.9
2019-01-05T11:39:04.029Z,30.9
2019-01-05T11:39:52.428Z,31
2019-01-05T11:40:41.886Z,31
2019-01-05T11:41:33.318Z,31.1
2019-01-05T11:42:23.262Z,31.1
2019-01-05T11:43:13.225Z,31
2019-01-05T11:44:03.281Z,30.9
2019-01-05T11:44:53.003Z,30.9
2019-01-05T11:45:42.939Z,30.9
2019-01-05T11:46:33.766Z,31
2019-01-05T11:47:23.440Z,31.1
2019-01-05T11:48:13.475Z,31.1
2019-01-05T11:49:03.305Z,31.2
2019-01-05T11:49:54.482Z,31.2
2019-01-05T11:50:43.350Z,31.2
2019-01-05T11:51:33.215Z,31.2
2019-01-05T11:52:23.528Z,31.1
2019-01-05T11:53:13.822Z,31.1
2019-01-05T11:54:03.987Z,31.1
2019-01-05T11:54:53.123Z,31.1
2019-01-05T11:55:44.040Z,31.1
2019-01-05T11:56:33.792Z,31.2
2019-01-05T11:57:24.210Z,31.2
2019-01-05T11:58:13.948Z,31.3
2019-01-05T11:59:03.728Z,31.3
2019-01-05T11:59:55.202Z,31.3